sensor_id;sensor_type;location;lat;lon;timestamp;P1;durP1;ratioP1;P2;durP2;ratioP2
3225;SDS011;1625;49.884;8.666;2022-07-10T02:46:59;5.80;;;3.50;;
3225;SDS011;1625;49.884;8.666;2022-07-10T02:49:25;4.37;;;3.53;;
3225;SDS011;1625;49.884;8.666;2022-07-10T02:51:50;5.70;;;3.53;;
3225;SDS011;1625;49.884;8.666;2022-07-10T02:54:16;3.70;;;3.27;;
3225;SDS011;1625;49.884;8.666;2022-07-10T02:56:41;4.23;;;3.83;;
3225;SDS011;1625;49.884;8.666;2022-07-10T04:16:13;3.13;;;2.80;;
3225;SDS011;1625;49.884;8.666;2022-07-10T04:19:36;4.90;;;3.20;;
3225;SDS011;1625;49.884;8.666;2022-07-10T04:22:02;4.60;;;3.40;;
3225;SDS011;1625;49.884;8.666;2022-07-10T04:24:28;5.40;;;3.33;;
3225;SDS011;1625;49.884;8.666;2022-07-10T04:26:53;3.43;;;3.17;;
3225;SDS011;1625;49.884;8.666;2022-07-10T05:00:54;3.37;;;2.97;;
3225;SDS011;1625;49.884;8.666;2022-07-10T05:03:19;4.57;;;2.70;;
3225;SDS011;1625;49.884;8.666;2022-07-10T05:05:45;4.47;;;2.30;;
3225;SDS011;1625;49.884;8.666;2022-07-10T05:08:11;3.30;;;2.70;;
3225;SDS011;1625;49.884;8.666;2022-07-10T05:10:36;2.50;;;2.30;;
3225;SDS011;1625;49.884;8.666;2022-07-10T05:13:02;2.90;;;2.70;;
3225;SDS011;1625;49.884;8.666;2022-07-10T05:15:27;5.90;;;2.70;;
3225;SDS011;1625;49.884;8.666;2022-07-10T05:17:52;3.50;;;2.60;;
3225;SDS011;1625;49.884;8.666;2022-07-10T05:20:30;2.37;;;2.17;;
3225;SDS011;1625;49.884;8.666;2022-07-10T05:22:56;3.50;;;2.63;;
3225;SDS011;1625;49.884;8.666;2022-07-10T05:25:22;3.00;;;2.57;;
3225;SDS011;1625;49.884;8.666;2022-07-10T05:27:47;3.57;;;2.50;;
3225;SDS011;1625;49.884;8.666;2022-07-10T05:30:13;2.83;;;1.90;;
3225;SDS011;1625;49.884;8.666;2022-07-10T05:32:42;3.97;;;1.90;;
3225;SDS011;1625;49.884;8.666;2022-07-10T05:35:08;2.43;;;2.10;;
3225;SDS011;1625;49.884;8.666;2022-07-10T05:37:35;4.07;;;2.50;;
3225;SDS011;1625;49.884;8.666;2022-07-10T05:40:01;3.60;;;2.20;;
3225;SDS011;1625;49.884;8.666;2022-07-10T05:42:26;2.90;;;2.60;;
3225;SDS011;1625;49.884;8.666;2022-07-10T05:44:52;3.00;;;2.10;;
3225;SDS011;1625;49.884;8.666;2022-07-10T05:47:17;3.73;;;1.80;;
3225;SDS011;1625;49.884;8.666;2022-07-10T05:49:43;2.50;;;2.03;;
3225;SDS011;1625;49.884;8.666;2022-07-10T05:52:08;3.63;;;2.03;;
3225;SDS011;1625;49.884;8.666;2022-07-10T05:54:34;4.50;;;3.07;;
3225;SDS011;1625;49.884;8.666;2022-07-10T05:59:46;3.90;;;2.10;;
3225;SDS011;1625;49.884;8.666;2022-07-10T06:02:11;3.67;;;2.53;;
3225;SDS011;1625;49.884;8.666;2022-07-10T06:04:37;4.07;;;1.80;;
3225;SDS011;1625;49.884;8.666;2022-07-10T06:07:02;4.17;;;2.20;;
3225;SDS011;1625;49.884;8.666;2022-07-10T06:09:28;3.37;;;2.00;;
3225;SDS011;1625;49.884;8.666;2022-07-10T06:11:54;2.97;;;1.80;;
3225;SDS011;1625;49.884;8.666;2022-07-10T06:14:19;3.10;;;1.90;;
3225;SDS011;1625;49.884;8.666;2022-07-10T06:16:45;2.80;;;1.70;;
3225;SDS011;1625;49.884;8.666;2022-07-10T06:19:10;6.60;;;2.03;;
3225;SDS011;1625;49.884;8.666;2022-07-10T06:21:36;4.93;;;1.87;;
3225;SDS011;1625;49.884;8.666;2022-07-10T06:24:01;2.20;;;2.00;;
3225;SDS011;1625;49.884;8.666;2022-07-10T06:26:27;5.47;;;2.00;;
3225;SDS011;1625;49.884;8.666;2022-07-10T06:28:53;3.07;;;1.80;;
3225;SDS011;1625;49.884;8.666;2022-07-10T06:31:18;1.50;;;1.40;;
3225;SDS011;1625;49.884;8.666;2022-07-10T06:33:44;3.10;;;1.67;;
3225;SDS011;1625;49.884;8.666;2022-07-10T06:36:09;3.03;;;1.60;;
3225;SDS011;1625;49.884;8.666;2022-07-10T06:38:37;1.97;;;1.77;;
3225;SDS011;1625;49.884;8.666;2022-07-10T06:41:02;2.53;;;1.53;;
3225;SDS011;1625;49.884;8.666;2022-07-10T06:43:28;3.57;;;1.70;;
3225;SDS011;1625;49.884;8.666;2022-07-10T06:45:54;2.50;;;1.50;;
3225;SDS011;1625;49.884;8.666;2022-07-10T06:48:20;3.33;;;1.40;;
3225;SDS011;1625;49.884;8.666;2022-07-10T06:50:46;2.03;;;1.20;;
3225;SDS011;1625;49.884;8.666;2022-07-10T06:53:12;4.67;;;1.80;;
3225;SDS011;1625;49.884;8.666;2022-07-10T06:55:38;1.53;;;1.10;;
3225;SDS011;1625;49.884;8.666;2022-07-10T06:58:03;1.90;;;1.20;;
3225;SDS011;1625;49.884;8.666;2022-07-10T07:00:29;2.13;;;1.10;;
3225;SDS011;1625;49.884;8.666;2022-07-10T07:02:55;2.93;;;0.97;;
3225;SDS011;1625;49.884;8.666;2022-07-10T07:05:20;4.70;;;1.13;;
3225;SDS011;1625;49.884;8.666;2022-07-10T07:07:46;2.97;;;1.10;;
3225;SDS011;1625;49.884;8.666;2022-07-10T07:10:11;2.33;;;1.13;;
3225;SDS011;1625;49.884;8.666;2022-07-10T07:12:37;2.10;;;1.17;;
3225;SDS011;1625;49.884;8.666;2022-07-10T07:15:03;2.00;;;1.50;;
3225;SDS011;1625;49.884;8.666;2022-07-10T07:17:29;3.70;;;2.23;;
3225;SDS011;1625;49.884;8.666;2022-07-10T07:19:59;1.73;;;1.17;;
3225;SDS011;1625;49.884;8.666;2022-07-10T07:22:44;2.80;;;1.40;;
3225;SDS011;1625;49.884;8.666;2022-07-10T07:25:28;1.60;;;1.10;;
3225;SDS011;1625;49.884;8.666;2022-07-10T07:27:53;1.87;;;1.10;;
3225;SDS011;1625;49.884;8.666;2022-07-10T07:30:19;2.03;;;1.27;;
3225;SDS011;1625;49.884;8.666;2022-07-10T07:32:45;3.07;;;1.20;;
3225;SDS011;1625;49.884;8.666;2022-07-10T07:35:13;2.73;;;1.80;;
3225;SDS011;1625;49.884;8.666;2022-07-10T07:37:47;2.70;;;1.20;;
3225;SDS011;1625;49.884;8.666;2022-07-10T07:40:19;2.00;;;1.23;;
3225;SDS011;1625;49.884;8.666;2022-07-10T07:42:47;2.93;;;1.13;;
3225;SDS011;1625;49.884;8.666;2022-07-10T07:45:13;1.87;;;1.10;;
3225;SDS011;1625;49.884;8.666;2022-07-10T07:47:43;5.50;;;1.30;;
3225;SDS011;1625;49.884;8.666;2022-07-10T07:50:25;2.50;;;2.03;;
3225;SDS011;1625;49.884;8.666;2022-07-10T07:52:57;1.20;;;0.93;;
3225;SDS011;1625;49.884;8.666;2022-07-10T07:55:23;2.30;;;1.13;;
3225;SDS011;1625;49.884;8.666;2022-07-10T07:57:51;3.33;;;1.40;;
3225;SDS011;1625;49.884;8.666;2022-07-10T08:00:21;2.27;;;1.37;;
3225;SDS011;1625;49.884;8.666;2022-07-10T08:02:49;3.10;;;1.50;;
3225;SDS011;1625;49.884;8.666;2022-07-10T08:05:15;3.17;;;1.73;;
3225;SDS011;1625;49.884;8.666;2022-07-10T08:07:51;2.07;;;1.07;;
3225;SDS011;1625;49.884;8.666;2022-07-10T08:10:19;2.60;;;1.40;;
3225;SDS011;1625;49.884;8.666;2022-07-10T08:12:46;4.30;;;1.53;;
3225;SDS011;1625;49.884;8.666;2022-07-10T08:15:13;1.80;;;1.03;;
3225;SDS011;1625;49.884;8.666;2022-07-10T08:17:41;3.40;;;1.47;;
3225;SDS011;1625;49.884;8.666;2022-07-10T08:20:09;2.07;;;1.30;;
3225;SDS011;1625;49.884;8.666;2022-07-10T08:22:37;3.43;;;1.67;;
3225;SDS011;1625;49.884;8.666;2022-07-10T08:25:04;3.43;;;1.50;;
3225;SDS011;1625;49.884;8.666;2022-07-10T08:27:29;1.63;;;1.20;;
3225;SDS011;1625;49.884;8.666;2022-07-10T08:29:55;3.30;;;1.30;;
3225;SDS011;1625;49.884;8.666;2022-07-10T08:32:20;1.90;;;1.10;;
3225;SDS011;1625;49.884;8.666;2022-07-10T08:34:46;3.43;;;1.10;;
3225;SDS011;1625;49.884;8.666;2022-07-10T08:37:13;3.23;;;1.23;;
3225;SDS011;1625;49.884;8.666;2022-07-10T08:39:39;2.30;;;1.63;;
3225;SDS011;1625;49.884;8.666;2022-07-10T08:42:05;3.30;;;1.40;;
3225;SDS011;1625;49.884;8.666;2022-07-10T08:44:32;4.50;;;2.33;;
3225;SDS011;1625;49.884;8.666;2022-07-10T08:46:58;3.60;;;2.10;;
3225;SDS011;1625;49.884;8.666;2022-07-10T08:49:27;2.07;;;1.10;;
3225;SDS011;1625;49.884;8.666;2022-07-10T08:51:57;1.70;;;1.03;;
3225;SDS011;1625;49.884;8.666;2022-07-10T08:54:27;2.70;;;1.03;;
3225;SDS011;1625;49.884;8.666;2022-07-10T08:56:55;2.30;;;1.10;;
3225;SDS011;1625;49.884;8.666;2022-07-10T08:59:21;2.27;;;0.90;;
3225;SDS011;1625;49.884;8.666;2022-07-10T09:01:47;2.40;;;1.20;;
3225;SDS011;1625;49.884;8.666;2022-07-10T09:04:21;2.80;;;1.40;;
3225;SDS011;1625;49.884;8.666;2022-07-10T09:06:59;6.63;;;1.67;;
3225;SDS011;1625;49.884;8.666;2022-07-10T09:10:08;2.70;;;1.40;;
3225;SDS011;1625;49.884;8.666;2022-07-10T09:12:50;2.50;;;1.33;;
3225;SDS011;1625;49.884;8.666;2022-07-10T09:15:21;2.37;;;1.30;;
3225;SDS011;1625;49.884;8.666;2022-07-10T09:17:58;2.23;;;1.20;;
3225;SDS011;1625;49.884;8.666;2022-07-10T09:22:55;2.13;;;1.77;;
3225;SDS011;1625;49.884;8.666;2022-07-10T09:25:41;4.47;;;1.10;;
3225;SDS011;1625;49.884;8.666;2022-07-10T09:28:07;2.67;;;1.30;;
3225;SDS011;1625;49.884;8.666;2022-07-10T09:30:33;2.90;;;1.30;;
3225;SDS011;1625;49.884;8.666;2022-07-10T09:41:20;1.37;;;1.10;;
3225;SDS011;1625;49.884;8.666;2022-07-10T09:43:49;2.13;;;1.20;;
3225;SDS011;1625;49.884;8.666;2022-07-10T09:46:17;1.70;;;1.10;;
3225;SDS011;1625;49.884;8.666;2022-07-10T09:48:44;2.60;;;1.97;;
3225;SDS011;1625;49.884;8.666;2022-07-10T09:51:10;1.63;;;1.10;;
3225;SDS011;1625;49.884;8.666;2022-07-10T09:53:45;2.33;;;1.30;;
3225;SDS011;1625;49.884;8.666;2022-07-10T09:56:11;2.33;;;1.20;;
3225;SDS011;1625;49.884;8.666;2022-07-10T09:58:37;3.20;;;1.50;;
3225;SDS011;1625;49.884;8.666;2022-07-10T10:01:04;2.27;;;1.20;;
3225;SDS011;1625;49.884;8.666;2022-07-10T10:03:32;2.53;;;1.30;;
3225;SDS011;1625;49.884;8.666;2022-07-10T10:06:10;3.63;;;1.53;;
3225;SDS011;1625;49.884;8.666;2022-07-10T10:08:44;3.57;;;1.20;;
3225;SDS011;1625;49.884;8.666;2022-07-10T10:11:19;2.17;;;1.20;;
3225;SDS011;1625;49.884;8.666;2022-07-10T10:13:48;3.23;;;1.57;;
3225;SDS011;1625;49.884;8.666;2022-07-10T10:16:14;3.90;;;1.43;;
3225;SDS011;1625;49.884;8.666;2022-07-10T10:18:42;2.97;;;1.90;;
3225;SDS011;1625;49.884;8.666;2022-07-10T10:21:27;2.47;;;1.60;;
3225;SDS011;1625;49.884;8.666;2022-07-10T10:23:53;2.87;;;1.53;;
3225;SDS011;1625;49.884;8.666;2022-07-10T10:26:20;1.97;;;1.50;;
3225;SDS011;1625;49.884;8.666;2022-07-10T10:28:47;3.40;;;1.43;;
3225;SDS011;1625;49.884;8.666;2022-07-10T10:31:13;2.27;;;1.40;;
3225;SDS011;1625;49.884;8.666;2022-07-10T10:33:42;2.90;;;1.40;;
3225;SDS011;1625;49.884;8.666;2022-07-10T10:36:11;3.43;;;1.20;;
3225;SDS011;1625;49.884;8.666;2022-07-10T10:41:24;2.63;;;1.40;;
3225;SDS011;1625;49.884;8.666;2022-07-10T10:49:18;3.13;;;1.60;;
3225;SDS011;1625;49.884;8.666;2022-07-10T10:57:19;2.67;;;1.70;;
3225;SDS011;1625;49.884;8.666;2022-07-10T10:59:54;2.20;;;1.67;;
3225;SDS011;1625;49.884;8.666;2022-07-10T11:03:22;2.10;;;1.33;;
3225;SDS011;1625;49.884;8.666;2022-07-10T11:06:40;2.27;;;1.70;;
3225;SDS011;1625;49.884;8.666;2022-07-10T11:09:32;2.40;;;1.83;;
3225;SDS011;1625;49.884;8.666;2022-07-10T11:12:16;4.90;;;2.10;;
3225;SDS011;1625;49.884;8.666;2022-07-10T11:15:17;1.63;;;1.53;;
3225;SDS011;1625;49.884;8.666;2022-07-10T11:18:43;2.17;;;1.57;;
3225;SDS011;1625;49.884;8.666;2022-07-10T11:29:02;2.90;;;1.40;;
3225;SDS011;1625;49.884;8.666;2022-07-10T11:59:34;2.77;;;1.77;;
3225;SDS011;1625;49.884;8.666;2022-07-10T12:01:59;2.20;;;1.70;;
3225;SDS011;1625;49.884;8.666;2022-07-10T12:04:25;3.27;;;1.80;;
3225;SDS011;1625;49.884;8.666;2022-07-10T12:06:53;1.63;;;1.43;;
3225;SDS011;1625;49.884;8.666;2022-07-10T12:09:19;3.07;;;1.87;;
3225;SDS011;1625;49.884;8.666;2022-07-10T12:14:31;2.10;;;1.70;;
3225;SDS011;1625;49.884;8.666;2022-07-10T12:21:32;5.20;;;1.87;;
3225;SDS011;1625;49.884;8.666;2022-07-10T12:25:06;5.07;;;2.10;;
3225;SDS011;1625;49.884;8.666;2022-07-10T12:31:29;4.30;;;2.13;;
3225;SDS011;1625;49.884;8.666;2022-07-10T12:34:52;3.23;;;1.80;;
3225;SDS011;1625;49.884;8.666;2022-07-10T12:38:14;3.33;;;1.87;;
3225;SDS011;1625;49.884;8.666;2022-07-10T12:41:55;2.00;;;1.60;;
3225;SDS011;1625;49.884;8.666;2022-07-10T12:45:17;2.70;;;1.70;;
3225;SDS011;1625;49.884;8.666;2022-07-10T12:48:32;3.20;;;1.77;;
3225;SDS011;1625;49.884;8.666;2022-07-10T12:51:26;3.00;;;1.73;;
3225;SDS011;1625;49.884;8.666;2022-07-10T12:55:04;3.00;;;2.33;;
3225;SDS011;1625;49.884;8.666;2022-07-10T12:57:15;2.80;;;1.60;;
3225;SDS011;1625;49.884;8.666;2022-07-10T12:59:46;2.13;;;1.47;;
3225;SDS011;1625;49.884;8.666;2022-07-10T13:02:59;3.47;;;1.83;;
3225;SDS011;1625;49.884;8.666;2022-07-10T13:09:39;4.60;;;1.90;;
3225;SDS011;1625;49.884;8.666;2022-07-10T13:13:14;1.97;;;1.80;;
3225;SDS011;1625;49.884;8.666;2022-07-10T13:16:49;2.40;;;2.00;;
3225;SDS011;1625;49.884;8.666;2022-07-10T13:20:26;4.00;;;2.03;;
3225;SDS011;1625;49.884;8.666;2022-07-10T13:27:05;4.23;;;2.17;;
3225;SDS011;1625;49.884;8.666;2022-07-10T13:29:53;1.70;;;1.30;;
3225;SDS011;1625;49.884;8.666;2022-07-10T13:35:33;1.80;;;1.20;;
3225;SDS011;1625;49.884;8.666;2022-07-10T13:38:56;3.20;;;1.50;;
3225;SDS011;1625;49.884;8.666;2022-07-10T13:42:22;3.53;;;1.60;;
3225;SDS011;1625;49.884;8.666;2022-07-10T13:45:17;2.80;;;1.70;;
3225;SDS011;1625;49.884;8.666;2022-07-10T13:47:43;2.67;;;1.20;;
3225;SDS011;1625;49.884;8.666;2022-07-10T13:50:08;2.57;;;1.50;;
3225;SDS011;1625;49.884;8.666;2022-07-10T13:52:34;3.90;;;2.40;;
3225;SDS011;1625;49.884;8.666;2022-07-10T13:55:06;2.60;;;2.20;;
3225;SDS011;1625;49.884;8.666;2022-07-10T13:57:34;5.37;;;1.57;;
3225;SDS011;1625;49.884;8.666;2022-07-10T14:00:00;3.00;;;1.50;;
3225;SDS011;1625;49.884;8.666;2022-07-10T14:02:26;3.00;;;1.43;;
3225;SDS011;1625;49.884;8.666;2022-07-10T14:04:52;3.57;;;1.63;;
3225;SDS011;1625;49.884;8.666;2022-07-10T14:07:21;3.80;;;1.77;;
3225;SDS011;1625;49.884;8.666;2022-07-10T14:09:55;3.00;;;1.70;;
3225;SDS011;1625;49.884;8.666;2022-07-10T14:12:21;2.77;;;1.63;;
3225;SDS011;1625;49.884;8.666;2022-07-10T14:14:48;2.40;;;1.93;;
3225;SDS011;1625;49.884;8.666;2022-07-10T14:17:16;2.67;;;1.40;;
3225;SDS011;1625;49.884;8.666;2022-07-10T14:32:46;2.77;;;1.70;;
3225;SDS011;1625;49.884;8.666;2022-07-10T14:35:11;2.83;;;1.20;;
3225;SDS011;1625;49.884;8.666;2022-07-10T14:37:37;4.17;;;1.47;;
3225;SDS011;1625;49.884;8.666;2022-07-10T14:40:02;2.47;;;1.50;;
3225;SDS011;1625;49.884;8.666;2022-07-10T14:42:28;1.83;;;1.30;;
3225;SDS011;1625;49.884;8.666;2022-07-10T15:31:44;2.60;;;1.20;;
3225;SDS011;1625;49.884;8.666;2022-07-10T15:34:55;2.90;;;1.10;;
3225;SDS011;1625;49.884;8.666;2022-07-10T15:38:22;3.43;;;1.37;;
3225;SDS011;1625;49.884;8.666;2022-07-10T15:41:11;1.40;;;1.13;;
3225;SDS011;1625;49.884;8.666;2022-07-10T15:44:47;1.80;;;1.20;;
3225;SDS011;1625;49.884;8.666;2022-07-10T15:47:13;2.63;;;1.10;;
3225;SDS011;1625;49.884;8.666;2022-07-10T15:49:39;1.60;;;1.50;;
3225;SDS011;1625;49.884;8.666;2022-07-10T15:52:05;1.70;;;1.50;;
3225;SDS011;1625;49.884;8.666;2022-07-10T15:54:31;1.87;;;1.20;;
3225;SDS011;1625;49.884;8.666;2022-07-10T15:56:56;2.03;;;1.30;;
3225;SDS011;1625;49.884;8.666;2022-07-10T15:59:22;2.30;;;1.30;;
3225;SDS011;1625;49.884;8.666;2022-07-10T16:01:51;1.77;;;1.23;;
3225;SDS011;1625;49.884;8.666;2022-07-10T16:04:18;4.97;;;1.23;;
3225;SDS011;1625;49.884;8.666;2022-07-10T16:06:44;2.17;;;1.30;;
3225;SDS011;1625;49.884;8.666;2022-07-10T16:09:10;2.00;;;1.23;;
3225;SDS011;1625;49.884;8.666;2022-07-10T16:11:36;2.70;;;1.57;;
3225;SDS011;1625;49.884;8.666;2022-07-10T16:14:01;1.77;;;1.30;;
3225;SDS011;1625;49.884;8.666;2022-07-10T16:16:27;1.20;;;1.10;;
3225;SDS011;1625;49.884;8.666;2022-07-10T16:18:52;1.30;;;1.10;;
3225;SDS011;1625;49.884;8.666;2022-07-10T16:21:18;3.50;;;1.53;;
3225;SDS011;1625;49.884;8.666;2022-07-10T16:23:44;1.93;;;1.13;;
3225;SDS011;1625;49.884;8.666;2022-07-10T16:26:10;1.40;;;1.30;;
3225;SDS011;1625;49.884;8.666;2022-07-10T16:28:36;1.73;;;1.20;;
3225;SDS011;1625;49.884;8.666;2022-07-10T16:31:02;1.43;;;1.10;;
3225;SDS011;1625;49.884;8.666;2022-07-10T16:33:28;1.87;;;1.20;;
3225;SDS011;1625;49.884;8.666;2022-07-10T16:35:55;2.20;;;1.33;;
3225;SDS011;1625;49.884;8.666;2022-07-10T16:38:21;2.03;;;1.30;;
3225;SDS011;1625;49.884;8.666;2022-07-10T16:40:46;1.90;;;1.50;;
3225;SDS011;1625;49.884;8.666;2022-07-10T16:43:12;3.97;;;1.10;;
3225;SDS011;1625;49.884;8.666;2022-07-10T16:45:39;1.40;;;1.30;;
3225;SDS011;1625;49.884;8.666;2022-07-10T16:48:05;2.30;;;1.63;;
3225;SDS011;1625;49.884;8.666;2022-07-10T16:50:31;1.33;;;1.10;;
3225;SDS011;1625;49.884;8.666;2022-07-10T16:52:58;1.80;;;1.53;;
3225;SDS011;1625;49.884;8.666;2022-07-10T16:55:24;1.30;;;1.20;;
3225;SDS011;1625;49.884;8.666;2022-07-10T16:57:49;1.70;;;1.47;;
3225;SDS011;1625;49.884;8.666;2022-07-10T17:00:15;2.33;;;1.47;;
3225;SDS011;1625;49.884;8.666;2022-07-10T17:02:40;1.70;;;1.40;;
3225;SDS011;1625;49.884;8.666;2022-07-10T17:05:06;1.27;;;1.17;;
3225;SDS011;1625;49.884;8.666;2022-07-10T17:07:33;1.50;;;1.40;;
3225;SDS011;1625;49.884;8.666;2022-07-10T17:09:58;1.53;;;1.43;;
3225;SDS011;1625;49.884;8.666;2022-07-10T17:12:24;2.90;;;1.80;;
3225;SDS011;1625;49.884;8.666;2022-07-10T17:14:50;2.00;;;1.60;;
3225;SDS011;1625;49.884;8.666;2022-07-10T17:17:16;2.03;;;1.70;;
3225;SDS011;1625;49.884;8.666;2022-07-10T17:19:41;1.90;;;1.80;;
3225;SDS011;1625;49.884;8.666;2022-07-10T17:22:07;2.47;;;2.27;;
3225;SDS011;1625;49.884;8.666;2022-07-10T17:24:37;2.97;;;2.67;;
3225;SDS011;1625;49.884;8.666;2022-07-10T17:27:03;2.43;;;2.23;;
3225;SDS011;1625;49.884;8.666;2022-07-10T17:29:29;2.20;;;2.00;;
3225;SDS011;1625;49.884;8.666;2022-07-10T17:31:54;2.30;;;2.10;;
3225;SDS011;1625;49.884;8.666;2022-07-10T17:34:20;4.00;;;2.33;;
3225;SDS011;1625;49.884;8.666;2022-07-10T17:36:45;3.00;;;2.37;;
3225;SDS011;1625;49.884;8.666;2022-07-10T17:39:11;2.47;;;2.27;;
3225;SDS011;1625;49.884;8.666;2022-07-10T17:41:37;2.43;;;2.23;;
3225;SDS011;1625;49.884;8.666;2022-07-10T17:44:03;2.27;;;2.07;;
3225;SDS011;1625;49.884;8.666;2022-07-10T17:46:29;2.30;;;2.10;;
3225;SDS011;1625;49.884;8.666;2022-07-10T17:48:55;3.50;;;2.13;;
3225;SDS011;1625;49.884;8.666;2022-07-10T17:51:21;2.20;;;2.10;;
3225;SDS011;1625;49.884;8.666;2022-07-10T17:53:48;1.70;;;1.60;;
3225;SDS011;1625;49.884;8.666;2022-07-10T17:56:15;2.70;;;2.50;;
3225;SDS011;1625;49.884;8.666;2022-07-10T17:58:41;2.53;;;2.33;;
3225;SDS011;1625;49.884;8.666;2022-07-10T18:01:07;2.40;;;2.20;;
3225;SDS011;1625;49.884;8.666;2022-07-10T18:03:32;2.30;;;2.07;;
3225;SDS011;1625;49.884;8.666;2022-07-10T18:05:58;2.70;;;2.50;;
3225;SDS011;1625;49.884;8.666;2022-07-10T18:08:24;3.33;;;2.53;;
3225;SDS011;1625;49.884;8.666;2022-07-10T18:10:50;3.93;;;2.70;;
3225;SDS011;1625;49.884;8.666;2022-07-10T18:13:16;3.10;;;2.90;;
3225;SDS011;1625;49.884;8.666;2022-07-10T18:15:42;2.80;;;2.60;;
3225;SDS011;1625;49.884;8.666;2022-07-10T18:18:07;3.23;;;2.43;;
3225;SDS011;1625;49.884;8.666;2022-07-10T18:20:33;3.37;;;3.17;;
3225;SDS011;1625;49.884;8.666;2022-07-10T18:23:01;3.40;;;3.10;;
3225;SDS011;1625;49.884;8.666;2022-07-10T18:25:27;3.60;;;3.40;;
3225;SDS011;1625;49.884;8.666;2022-07-10T18:27:53;3.83;;;3.37;;
3225;SDS011;1625;49.884;8.666;2022-07-10T18:30:19;3.80;;;3.50;;
3225;SDS011;1625;49.884;8.666;2022-07-10T18:32:44;3.17;;;2.97;;
3225;SDS011;1625;49.884;8.666;2022-07-10T18:35:29;3.70;;;2.93;;
3225;SDS011;1625;49.884;8.666;2022-07-10T18:37:54;3.57;;;3.37;;
3225;SDS011;1625;49.884;8.666;2022-07-10T18:40:20;17.63;;;16.10;;
3225;SDS011;1625;49.884;8.666;2022-07-10T18:42:45;3.90;;;3.60;;
3225;SDS011;1625;49.884;8.666;2022-07-10T18:45:11;3.67;;;3.20;;
3225;SDS011;1625;49.884;8.666;2022-07-10T18:47:36;3.53;;;3.30;;
3225;SDS011;1625;49.884;8.666;2022-07-10T18:50:02;3.10;;;2.90;;
3225;SDS011;1625;49.884;8.666;2022-07-10T18:52:32;3.10;;;2.80;;
3225;SDS011;1625;49.884;8.666;2022-07-10T18:54:57;3.40;;;2.93;;
3225;SDS011;1625;49.884;8.666;2022-07-10T18:57:23;3.00;;;2.70;;
3225;SDS011;1625;49.884;8.666;2022-07-10T18:59:49;3.93;;;3.33;;
3225;SDS011;1625;49.884;8.666;2022-07-10T19:02:14;2.90;;;2.70;;
3225;SDS011;1625;49.884;8.666;2022-07-10T19:04:40;3.10;;;2.90;;
3225;SDS011;1625;49.884;8.666;2022-07-10T19:07:05;3.27;;;3.07;;
3225;SDS011;1625;49.884;8.666;2022-07-10T19:09:31;3.07;;;2.87;;
3225;SDS011;1625;49.884;8.666;2022-07-10T19:11:57;3.03;;;2.73;;
3225;SDS011;1625;49.884;8.666;2022-07-10T19:14:24;3.37;;;3.07;;
3225;SDS011;1625;49.884;8.666;2022-07-10T19:16:50;3.07;;;2.87;;
3225;SDS011;1625;49.884;8.666;2022-07-10T19:19:16;3.30;;;3.00;;
3225;SDS011;1625;49.884;8.666;2022-07-10T19:21:41;3.13;;;2.93;;
3225;SDS011;1625;49.884;8.666;2022-07-10T19:24:07;3.23;;;2.93;;
3225;SDS011;1625;49.884;8.666;2022-07-10T19:26:32;3.03;;;2.83;;
3225;SDS011;1625;49.884;8.666;2022-07-10T19:28:58;2.80;;;2.60;;
3225;SDS011;1625;49.884;8.666;2022-07-10T19:31:25;2.80;;;2.60;;
3225;SDS011;1625;49.884;8.666;2022-07-10T19:33:51;3.37;;;3.07;;
3225;SDS011;1625;49.884;8.666;2022-07-10T19:36:17;3.40;;;3.10;;
3225;SDS011;1625;49.884;8.666;2022-07-10T19:38:42;3.20;;;3.00;;
3225;SDS011;1625;49.884;8.666;2022-07-10T19:41:08;3.03;;;2.73;;
3225;SDS011;1625;49.884;8.666;2022-07-10T19:43:35;2.90;;;2.50;;
3225;SDS011;1625;49.884;8.666;2022-07-10T19:46:00;3.30;;;3.10;;
3225;SDS011;1625;49.884;8.666;2022-07-10T19:48:29;3.20;;;3.00;;
3225;SDS011;1625;49.884;8.666;2022-07-10T19:51:02;3.10;;;2.90;;
3225;SDS011;1625;49.884;8.666;2022-07-10T19:53:28;4.00;;;3.40;;
3225;SDS011;1625;49.884;8.666;2022-07-10T19:55:53;3.53;;;3.30;;
3225;SDS011;1625;49.884;8.666;2022-07-10T19:58:19;3.40;;;3.10;;
3225;SDS011;1625;49.884;8.666;2022-07-10T20:00:45;3.40;;;3.10;;
3225;SDS011;1625;49.884;8.666;2022-07-10T20:03:10;3.10;;;2.90;;
3225;SDS011;1625;49.884;8.666;2022-07-10T20:05:36;3.30;;;3.10;;
3225;SDS011;1625;49.884;8.666;2022-07-10T20:08:02;3.03;;;2.83;;
3225;SDS011;1625;49.884;8.666;2022-07-10T20:10:28;3.10;;;2.90;;
3225;SDS011;1625;49.884;8.666;2022-07-10T20:12:54;3.70;;;3.40;;
3225;SDS011;1625;49.884;8.666;2022-07-10T20:15:20;3.93;;;3.63;;
3225;SDS011;1625;49.884;8.666;2022-07-10T20:17:45;3.10;;;2.90;;
3225;SDS011;1625;49.884;8.666;2022-07-10T20:20:11;3.60;;;3.30;;
3225;SDS011;1625;49.884;8.666;2022-07-10T20:22:37;3.70;;;3.50;;
3225;SDS011;1625;49.884;8.666;2022-07-10T20:25:03;4.23;;;3.80;;
3225;SDS011;1625;49.884;8.666;2022-07-10T20:27:30;4.20;;;3.90;;
3225;SDS011;1625;49.884;8.666;2022-07-10T20:29:56;4.57;;;4.27;;
3225;SDS011;1625;49.884;8.666;2022-07-10T20:32:22;4.60;;;4.30;;
3225;SDS011;1625;49.884;8.666;2022-07-10T20:34:47;4.37;;;4.07;;
3225;SDS011;1625;49.884;8.666;2022-07-10T20:37:13;4.67;;;4.37;;
3225;SDS011;1625;49.884;8.666;2022-07-10T20:39:58;4.20;;;3.90;;
3225;SDS011;1625;49.884;8.666;2022-07-10T20:42:23;4.30;;;4.00;;
3225;SDS011;1625;49.884;8.666;2022-07-10T20:44:50;4.30;;;4.00;;
3225;SDS011;1625;49.884;8.666;2022-07-10T20:47:15;4.47;;;4.17;;
3225;SDS011;1625;49.884;8.666;2022-07-10T20:49:41;4.77;;;4.40;;
3225;SDS011;1625;49.884;8.666;2022-07-10T20:52:07;5.50;;;4.80;;
3225;SDS011;1625;49.884;8.666;2022-07-10T20:54:32;4.83;;;4.53;;
3225;SDS011;1625;49.884;8.666;2022-07-10T20:56:58;5.00;;;4.57;;
3225;SDS011;1625;49.884;8.666;2022-07-10T20:59:23;5.43;;;5.07;;
3225;SDS011;1625;49.884;8.666;2022-07-10T21:01:49;5.10;;;4.70;;
3225;SDS011;1625;49.884;8.666;2022-07-10T21:04:14;5.50;;;5.00;;
3225;SDS011;1625;49.884;8.666;2022-07-10T21:06:40;5.10;;;4.70;;
3225;SDS011;1625;49.884;8.666;2022-07-10T21:09:05;5.07;;;4.77;;
3225;SDS011;1625;49.884;8.666;2022-07-10T21:11:32;5.43;;;4.90;;
3225;SDS011;1625;49.884;8.666;2022-07-10T21:13:58;5.60;;;5.10;;
3225;SDS011;1625;49.884;8.666;2022-07-10T21:16:23;5.70;;;5.20;;
3225;SDS011;1625;49.884;8.666;2022-07-10T21:18:49;5.17;;;4.87;;
3225;SDS011;1625;49.884;8.666;2022-07-10T21:21:15;5.40;;;5.00;;
3225;SDS011;1625;49.884;8.666;2022-07-10T21:23:42;5.27;;;4.93;;
3225;SDS011;1625;49.884;8.666;2022-07-10T21:26:08;5.50;;;5.10;;
3225;SDS011;1625;49.884;8.666;2022-07-10T21:28:34;5.37;;;4.93;;
3225;SDS011;1625;49.884;8.666;2022-07-10T21:31:01;5.30;;;4.80;;
3225;SDS011;1625;49.884;8.666;2022-07-10T21:33:27;5.50;;;5.10;;
3225;SDS011;1625;49.884;8.666;2022-07-10T21:35:52;4.80;;;4.50;;
3225;SDS011;1625;49.884;8.666;2022-07-10T21:38:18;4.93;;;4.63;;
3225;SDS011;1625;49.884;8.666;2022-07-10T21:40:43;5.30;;;4.90;;
3225;SDS011;1625;49.884;8.666;2022-07-10T21:43:09;5.87;;;5.40;;
3225;SDS011;1625;49.884;8.666;2022-07-10T21:45:35;5.53;;;5.13;;
3225;SDS011;1625;49.884;8.666;2022-07-10T21:48:03;5.03;;;4.73;;
3225;SDS011;1625;49.884;8.666;2022-07-10T21:50:29;5.23;;;4.93;;
3225;SDS011;1625;49.884;8.666;2022-07-10T21:52:55;4.90;;;4.60;;
3225;SDS011;1625;49.884;8.666;2022-07-10T21:55:22;5.40;;;4.97;;
3225;SDS011;1625;49.884;8.666;2022-07-10T21:57:49;5.80;;;5.30;;
3225;SDS011;1625;49.884;8.666;2022-07-10T22:00:15;5.57;;;5.17;;
3225;SDS011;1625;49.884;8.666;2022-07-10T22:02:40;5.80;;;5.30;;
3225;SDS011;1625;49.884;8.666;2022-07-10T22:05:06;6.17;;;5.77;;
3225;SDS011;1625;49.884;8.666;2022-07-10T22:07:32;6.27;;;5.87;;
3225;SDS011;1625;49.884;8.666;2022-07-10T22:09:58;6.90;;;5.67;;
3225;SDS011;1625;49.884;8.666;2022-07-10T22:12:23;5.13;;;4.83;;
3225;SDS011;1625;49.884;8.666;2022-07-10T22:14:49;7.30;;;5.10;;
3225;SDS011;1625;49.884;8.666;2022-07-10T22:17:15;5.53;;;5.13;;
3225;SDS011;1625;49.884;8.666;2022-07-10T22:19:40;6.50;;;5.90;;
3225;SDS011;1625;49.884;8.666;2022-07-10T22:22:06;6.47;;;5.90;;
3225;SDS011;1625;49.884;8.666;2022-07-10T22:24:31;4.97;;;4.60;;
3225;SDS011;1625;49.884;8.666;2022-07-10T22:26:57;5.40;;;5.00;;
3225;SDS011;1625;49.884;8.666;2022-07-10T22:29:22;5.43;;;5.03;;
3225;SDS011;1625;49.884;8.666;2022-07-10T22:31:48;6.13;;;5.60;;
3225;SDS011;1625;49.884;8.666;2022-07-10T22:34:14;6.07;;;5.57;;
3225;SDS011;1625;49.884;8.666;2022-07-10T22:36:39;5.67;;;5.17;;